createdAt,value
2023-04-16T00:00:44.841Z,100508.48
2023-04-16T00:06:06.280Z,100511.19
2023-04-16T00:11:10.497Z,100513.17
2023-04-16T00:16:13.594Z,100509.58
2023-04-16T00:21:16.420Z,100506.88
2023-04-16T00:26:19.191Z,100502.68
2023-04-16T00:31:51.215Z,100501.16
2023-04-16T00:36:53.994Z,100505.67
2023-04-16T00:41:57.185Z,100500.30
2023-04-16T00:46:59.994Z,100501.20
2023-04-16T00:52:03.514Z,100503.65
2023-04-16T00:57:06.294Z,100504.27
2023-04-16T01:02:09.303Z,100506.15
2023-04-16T01:07:12.251Z,100501.67
2023-04-16T01:12:15.166Z,100504.12
2023-04-16T01:17:17.997Z,100507.80
2023-04-16T01:22:20.823Z,100507.40
2023-04-16T01:27:23.661Z,100510.98
2023-04-16T01:32:26.440Z,100509.06
2023-04-16T01:37:29.267Z,100510.91
2023-04-16T01:42:32.253Z,100512.73
2023-04-16T01:47:35.108Z,100512.35
2023-04-16T01:52:38.050Z,100521.33
2023-04-16T01:57:40.831Z,100524.21
2023-04-16T02:02:43.783Z,100533.55
2023-04-16T02:07:46.640Z,100537.00
2023-04-16T02:12:49.413Z,100541.23
2023-04-16T02:17:57.001Z,100547.76
2023-04-16T02:23:00.508Z,100551.72
2023-04-16T02:28:03.249Z,100555.41
2023-04-16T02:33:07.559Z,100555.88
2023-04-16T02:38:10.509Z,100560.98
2023-04-16T02:43:13.231Z,100561.83
2023-04-16T02:48:16.000Z,100568.80
2023-04-16T02:53:18.941Z,100570.44
2023-04-16T02:58:24.093Z,100578.14
2023-04-16T03:03:26.967Z,100584.83
2023-04-16T03:08:29.816Z,100589.33
2023-04-16T03:13:32.634Z,100586.75
2023-04-16T03:18:35.459Z,100588.73
2023-04-16T03:23:38.323Z,100589.59
2023-04-16T03:28:41.097Z,100590.52
2023-04-16T03:33:43.873Z,100590.90
2023-04-16T03:38:46.710Z,100591.95
2023-04-16T03:43:49.438Z,100593.05
2023-04-16T03:48:52.210Z,100591.23
2023-04-16T03:53:55.229Z,100592.69
2023-04-16T03:58:58.194Z,100591.91
2023-04-16T04:04:01.863Z,100590.55
2023-04-16T04:09:05.934Z,100592.05
2023-04-16T04:14:08.809Z,100595.34
2023-04-16T04:19:11.719Z,100596.38
2023-04-16T04:24:14.530Z,100601.90
2023-04-16T04:29:17.352Z,100607.00
2023-04-16T04:34:20.166Z,100610.05
2023-04-16T04:39:23.583Z,100622.41
2023-04-16T04:44:26.491Z,100627.51
2023-04-16T04:49:30.544Z,100633.77
2023-04-16T04:54:33.412Z,100635.95
2023-04-16T04:59:36.314Z,100643.15
2023-04-16T05:04:39.228Z,100648.73
2023-04-16T05:09:42.153Z,100649.40
2023-04-16T05:14:44.982Z,100655.39
2023-04-16T05:19:48.340Z,100655.92
2023-04-16T05:24:51.106Z,100659.52
2023-04-16T05:29:53.951Z,100658.45
2023-04-16T05:34:56.697Z,100661.98
2023-04-16T05:39:59.438Z,100663.05
2023-04-16T05:45:04.862Z,100667.48
2023-04-16T05:50:09.381Z,100671.16
2023-04-16T05:55:12.371Z,100675.37
2023-04-16T06:00:15.426Z,100677.56
2023-04-16T06:05:18.802Z,100681.15
2023-04-16T06:10:21.652Z,100685.15
2023-04-16T06:15:24.457Z,100687.73
2023-04-16T06:20:27.345Z,100687.88
2023-04-16T06:25:30.203Z,100691.79
2023-04-16T06:30:33.645Z,100699.90
2023-04-16T06:35:36.453Z,100699.59
2023-04-16T06:40:39.182Z,100695.58
2023-04-16T06:45:42.008Z,100699.38
2023-04-16T06:50:45.019Z,100708.98
2023-04-16T06:55:47.827Z,100709.61
2023-04-16T07:00:50.628Z,100709.32
2023-04-16T07:05:53.598Z,100713.09
2023-04-16T07:10:56.560Z,100719.98
2023-04-16T07:15:59.443Z,100723.17
2023-04-16T07:21:02.232Z,100721.48
2023-04-16T07:26:05.063Z,100734.80
2023-04-16T07:31:08.116Z,100744.45
2023-04-16T07:36:11.194Z,100747.35
2023-04-16T07:41:14.793Z,100756.45
2023-04-16T07:46:17.584Z,100759.03
2023-04-16T07:51:20.449Z,100760.39
2023-04-16T07:56:23.305Z,100761.20
2023-04-16T08:01:26.307Z,100769.60
2023-04-16T08:06:29.398Z,100774.88
2023-04-16T08:11:32.123Z,100777.65
2023-04-16T08:16:35.149Z,100783.77
2023-04-16T08:21:38.152Z,100787.09
2023-04-16T08:26:41.675Z,100789.02
2023-04-16T08:31:44.677Z,100791.17
2023-04-16T08:36:47.589Z,100792.52
2023-04-16T08:41:50.519Z,100793.63
2023-04-16T08:46:58.259Z,100796.73
2023-04-16T08:52:01.115Z,100795.52
2023-04-16T08:57:06.531Z,100802.77
2023-04-16T09:02:09.603Z,100809.52
2023-04-16T09:07:12.617Z,100811.09
2023-04-16T09:12:15.658Z,100814.80
2023-04-16T09:17:19.007Z,100815.16
2023-04-16T09:22:22.031Z,100816.41
2023-04-16T09:27:26.073Z,100824.73
2023-04-16T09:32:29.338Z,100828.82
2023-04-16T09:37:32.371Z,100829.16
2023-04-16T09:42:37.314Z,100827.61
2023-04-16T09:47:45.187Z,100832.52
2023-04-16T09:52:51.145Z,100838.56
2023-04-16T09:58:00.454Z,100844.90
2023-04-16T10:03:07.077Z,100848.98
2023-04-16T10:08:13.849Z,100849.58
2023-04-16T10:13:17.822Z,100850.02
2023-04-16T10:18:20.920Z,100851.06
2023-04-16T10:23:23.931Z,100857.93
2023-04-16T10:28:29.070Z,100863.58
2023-04-16T10:33:34.497Z,100868.61
2023-04-16T10:38:50.969Z,100870.11
2023-04-16T10:43:54.175Z,100871.14
2023-04-16T10:49:00.720Z,100873.11
2023-04-16T10:54:05.434Z,100873.21
2023-04-16T10:59:10.313Z,100876.83
2023-04-16T11:04:19.485Z,100882.73
2023-04-16T11:09:50.527Z,100884.23
2023-04-16T11:14:55.489Z,100886.77
2023-04-16T11:19:58.406Z,100883.60
2023-04-16T11:25:01.296Z,100889.46
2023-04-16T11:30:07.472Z,100884.97
2023-04-16T11:35:17.994Z,100887.96
2023-04-16T11:40:21.097Z,100882.16
2023-04-16T11:45:23.820Z,100884.05
2023-04-16T11:50:28.421Z,100883.54
2023-04-16T11:55:31.265Z,100878.02
2023-04-16T12:00:37.341Z,100875.74
2023-04-16T12:05:40.795Z,100875.67
2023-04-16T12:10:54.625Z,100871.63
2023-04-16T12:15:57.474Z,100869.43
2023-04-16T12:21:04.911Z,100870.55
2023-04-16T12:26:10.599Z,100870.59
2023-04-16T12:31:14.859Z,100868.27
2023-04-16T12:36:19.351Z,100862.84
2023-04-16T12:41:22.452Z,100861.57
2023-04-16T12:46:25.330Z,100861.36
2023-04-16T12:51:28.092Z,100851.75
2023-04-16T12:56:31.336Z,100847.83
2023-04-16T13:01:36.819Z,100850.27
2023-04-16T13:06:40.581Z,100853.36
2023-04-16T13:11:43.426Z,100847.48
2023-04-16T13:16:46.194Z,100845.31
2023-04-16T13:21:49.029Z,100843.40
2023-04-16T13:26:56.449Z,100842.08
2023-04-16T13:31:59.244Z,100842.83
2023-04-16T13:37:01.960Z,100839.55
2023-04-16T13:42:04.863Z,100841.19
2023-04-16T13:47:08.107Z,100840.12
2023-04-16T13:52:11.169Z,100843.02
2023-04-16T13:57:14.101Z,100844.95
2023-04-16T14:02:18.324Z,100841.52
2023-04-16T14:07:22.629Z,100842.05
2023-04-16T14:12:25.560Z,100839.49
2023-04-16T14:17:28.476Z,100838.80
2023-04-16T14:22:31.407Z,100842.33
2023-04-16T14:27:34.437Z,100844.05
2023-04-16T14:32:37.591Z,100837.83
2023-04-16T14:37:41.541Z,100842.27
2023-04-16T14:42:44.254Z,100839.48
2023-04-16T14:47:47.905Z,100844.13
2023-04-16T14:52:51.012Z,100847.27
2023-04-16T14:57:53.884Z,100852.91
2023-04-16T15:02:56.708Z,100859.52
2023-04-16T15:08:00.592Z,100857.63
2023-04-16T15:13:03.413Z,100856.05
2023-04-16T15:18:06.419Z,100857.04
2023-04-16T15:23:09.336Z,100859.21
2023-04-16T15:28:12.061Z,100858.73
2023-04-16T15:33:14.886Z,100862.33
2023-04-16T15:38:18.702Z,100868.66
2023-04-16T15:43:21.478Z,100870.17
2023-04-16T15:48:24.682Z,100868.00
2023-04-16T15:53:27.568Z,100872.80
2023-04-16T15:58:30.309Z,100867.92
2023-04-16T16:03:33.938Z,100871.08
2023-04-16T16:08:38.328Z,100879.66
2023-04-16T16:13:41.793Z,100884.61
2023-04-16T16:18:44.594Z,100892.80
2023-04-16T16:23:47.497Z,100897.98
2023-04-16T16:28:50.224Z,100901.33
2023-04-16T16:33:52.982Z,100906.47
2023-04-16T16:38:56.630Z,100909.18
2023-04-16T16:43:59.480Z,100911.42
2023-04-16T16:49:07.028Z,100923.65
2023-04-16T16:54:09.808Z,100926.18
2023-04-16T16:59:12.833Z,100933.65
2023-04-16T17:04:18.657Z,100941.24
2023-04-16T17:09:22.987Z,100952.37
2023-04-16T17:14:25.846Z,100954.83
2023-04-16T17:19:29.414Z,100959.23
2023-04-16T17:24:32.289Z,100964.77
2023-04-16T17:29:35.259Z,100970.09
2023-04-16T17:34:38.004Z,100975.87
2023-04-16T17:39:41.151Z,100984.05
2023-04-16T17:44:43.907Z,100988.80
2023-04-16T17:49:46.756Z,100992.92
2023-04-16T17:54:49.622Z,100992.80
2023-04-16T17:59:52.478Z,100995.90
2023-04-16T18:04:55.499Z,100994.46
2023-04-16T18:09:58.484Z,100995.80
2023-04-16T18:15:01.327Z,100999.23
2023-04-16T18:20:07.037Z,101001.89
2023-04-16T18:25:10.075Z,101009.25
2023-04-16T18:30:20.044Z,101013.63
2023-04-16T18:35:26.234Z,101013.69
2023-04-16T18:40:29.358Z,101014.13
2023-04-16T18:45:34.217Z,101019.95
2023-04-16T18:50:37.423Z,101017.55
2023-04-16T18:55:40.132Z,101021.81
2023-04-16T19:00:42.888Z,101022.43
2023-04-16T19:05:45.850Z,101020.48
2023-04-16T19:10:49.732Z,101024.26
2023-04-16T19:15:59.392Z,101031.70
2023-04-16T19:21:02.408Z,101032.73
2023-04-16T19:26:05.461Z,101039.04
2023-04-16T19:31:08.817Z,101041.29
2023-04-16T19:36:11.662Z,101042.61
2023-04-16T19:41:14.608Z,101044.52
2023-04-16T19:46:17.848Z,101036.73
2023-04-16T19:51:21.072Z,101035.17
2023-04-16T19:56:25.034Z,101033.42
2023-04-16T20:01:28.265Z,101039.88
2023-04-16T20:06:31.767Z,101040.71
2023-04-16T20:11:35.512Z,101036.56
2023-04-16T20:16:38.680Z,101038.11
2023-04-16T20:21:43.172Z,101038.79
2023-04-16T20:26:45.876Z,101038.63
2023-04-16T20:31:48.761Z,101034.71
2023-04-16T20:36:52.675Z,101037.41
2023-04-16T20:41:58.419Z,101035.55
2023-04-16T20:47:01.275Z,101034.84
2023-04-16T20:52:05.603Z,101037.85
2023-04-16T20:57:08.561Z,101037.42
2023-04-16T21:02:11.512Z,101041.89
2023-04-16T21:07:14.577Z,101035.61
2023-04-16T21:12:17.342Z,101037.94
2023-04-16T21:17:20.206Z,101040.99
2023-04-16T21:22:23.774Z,101045.55
2023-04-16T21:27:26.532Z,101048.45
2023-04-16T21:32:29.338Z,101047.13
2023-04-16T21:37:32.218Z,101047.18
2023-04-16T21:42:39.915Z,101047.34
2023-04-16T21:47:42.914Z,101043.58
2023-04-16T21:52:46.815Z,101038.25
2023-04-16T21:57:49.609Z,101046.93
2023-04-16T22:02:56.261Z,101047.11
2023-04-16T22:07:59.357Z,101045.65
2023-04-16T22:13:02.180Z,101050.35
2023-04-16T22:18:05.564Z,101047.69
2023-04-16T22:23:08.382Z,101047.48
2023-04-16T22:28:11.129Z,101053.04
2023-04-16T22:33:14.001Z,101053.50
2023-04-16T22:38:16.746Z,101049.19
2023-04-16T22:43:19.566Z,101056.17
2023-04-16T22:48:22.551Z,101047.84
2023-04-16T22:53:25.647Z,101047.63
2023-04-16T22:58:28.510Z,101050.14
2023-04-16T23:03:32.076Z,101044.49
2023-04-16T23:08:34.885Z,101042.39
2023-04-16T23:13:38.210Z,101043.87
2023-04-16T23:18:40.914Z,101040.58
2023-04-16T23:23:43.725Z,101039.31
2023-04-16T23:28:46.459Z,101032.27
2023-04-16T23:33:49.238Z,101030.52
2023-04-16T23:38:52.102Z,101027.73
2023-04-16T23:43:54.848Z,101024.79
2023-04-16T23:48:57.688Z,101022.16
2023-04-16T23:54:00.525Z,101023.72
2023-04-16T23:59:03.410Z,101021.35
